Terminal Aerodrome Forecast
Issued by NWS Brownsville, TX

Home | Current Version | Previous Version | Text Only | Print | Product List | Glossary On
Versions: 1 2 3 4 5 6 7 8 9 10 11 12 13 14 15 16 17
000
FTUS44 KBRO 310530
TAFBRO
TAF
KBRO 310530Z 3106/0106 08004KT 6SM BR BKN060
     FM311000 13003KT 2SM BR BKN060
     FM311300 15006KT 3SM BR FEW006 SCT009
     FM311600 16018G26KT P6SM BKN050
     FM010100 15008KT P6SM BKN100=

USA.gov is the U.S. government's official web portal to all federal, state and local government web resources and services.